Time;durP1;ratioP1;P1;durP2;ratioP2;P2;SDS_P1;SDS_P2;PMS_P1;PMS_P2;Temp;Humidity;BMP_temperature;BMP_pressure;BME280_temperature;BME280_humidity;BME280_pressure;Samples;Min_cycle;Max_cycle;Signal;HPM_P1;HPM_P2
2023/06/13 00:02:13;;;;;;;3.95;2.08;;;;;;;;;;5282771;28;20026;-73
2023/06/13 00:04:45;;;;;;;3.65;1.80;;;;;;;;;;5281295;28;20013;-74
2023/06/13 00:07:17;;;;;;;7.38;2.13;;;;;;;;;;5282710;28;20024;-73
2023/06/13 00:09:48;;;;;;;3.15;1.65;;;;;;;;;;5281551;28;20089;-74
2023/06/13 00:12:20;;;;;;;5.80;1.80;;;;;;;;;;5281390;28;20028;-74
2023/06/13 00:14:51;;;;;;;5.03;2.40;;;;;;;;;;5281813;28;20266;-73
2023/06/13 00:17:25;;;;;;;3.70;1.67;;;;;;;;;;5282161;28;20017;-75
2023/06/13 00:19:56;;;;;;;3.75;2.00;;;;;;;;;;5281157;28;20542;-75
2023/06/13 00:22:28;;;;;;;2.90;1.57;;;;;;;;;;5281749;28;20099;-74
2023/06/13 00:24:59;;;;;;;4.70;1.80;;;;;;;;;;5281972;28;20031;-74
2023/06/13 00:27:31;;;;;;;4.87;1.80;;;;;;;;;;5281115;28;20012;-74
2023/06/13 00:30:04;;;;;;;6.85;2.00;;;;;;;;;;5281980;28;20261;-73
2023/06/13 00:32:35;;;;;;;6.68;2.03;;;;;;;;;;5281678;28;20050;-73
2023/06/13 00:35:08;;;;;;;4.45;2.60;;;;;;;;;;5280954;28;20008;-74
2023/06/13 00:37:40;;;;;;;3.90;2.22;;;;;;;;;;5281747;28;20017;-73
2023/06/13 00:40:11;;;;;;;3.17;1.98;;;;;;;;;;5281476;28;20058;-73
2023/06/13 00:42:43;;;;;;;3.38;1.90;;;;;;;;;;5281473;28;20020;-74
2023/06/13 00:45:18;;;;;;;5.03;2.17;;;;;;;;;;5281099;28;20100;-73
2023/06/13 00:47:51;;;;;;;4.55;2.10;;;;;;;;;;5280486;28;20074;-73
2023/06/13 00:50:26;;;;;;;4.70;2.35;;;;;;;;;;5281489;28;20044;-74
2023/06/13 00:52:59;;;;;;;3.45;2.08;;;;;;;;;;5281471;28;20462;-73
2023/06/13 00:55:30;;;;;;;3.45;1.92;;;;;;;;;;5280807;28;20054;-74
2023/06/13 00:58:10;;;;;;;6.15;1.95;;;;;;;;;;5281549;28;20012;-74
2023/06/13 01:00:43;;;;;;;3.75;2.30;;;;;;;;;;5281449;28;20017;-74
2023/06/13 01:03:15;;;;;;;3.90;2.28;;;;;;;;;;5281278;28;20024;-73
2023/06/13 01:05:46;;;;;;;2.92;1.70;;;;;;;;;;5281098;28;20047;-74
2023/06/13 01:08:23;;;;;;;4.10;2.20;;;;;;;;;;5280509;28;20458;-73
2023/06/13 01:11:01;;;;;;;4.15;2.03;;;;;;;;;;5281361;28;20376;-74
2023/06/13 01:13:35;;;;;;;2.73;1.90;;;;;;;;;;5281174;28;20028;-72
2023/06/13 01:16:16;;;;;;;3.30;2.00;;;;;;;;;;5280531;28;20629;-72
2023/06/13 01:18:50;;;;;;;3.33;2.00;;;;;;;;;;5280766;28;20031;-72
2023/06/13 01:21:24;;;;;;;4.68;2.00;;;;;;;;;;5281357;28;20157;-72
2023/06/13 01:23:55;;;;;;;3.30;1.83;;;;;;;;;;5280728;28;20025;-72
2023/06/13 01:26:45;;;;;;;5.05;1.75;;;;;;;;;;5281392;28;20031;-72
2023/06/13 01:29:17;;;;;;;4.13;1.70;;;;;;;;;;5280854;28;20446;-72
2023/06/13 01:31:50;;;;;;;5.72;1.98;;;;;;;;;;5280933;28;20056;-72
2023/06/13 01:34:24;;;;;;;3.72;1.80;;;;;;;;;;5281510;28;20051;-72
2023/06/13 01:36:55;;;;;;;5.63;1.80;;;;;;;;;;5280547;28;20074;-72
2023/06/13 01:39:26;;;;;;;4.15;2.08;;;;;;;;;;5281160;28;20016;-72
2023/06/13 01:41:57;;;;;;;7.05;2.00;;;;;;;;;;5281005;28;20105;-73
2023/06/13 01:44:29;;;;;;;3.53;2.20;;;;;;;;;;5280685;28;20025;-74
2023/06/13 01:47:19;;;;;;;4.78;1.98;;;;;;;;;;5281229;28;20298;-73
2023/06/13 01:50:10;;;;;;;4.43;2.38;;;;;;;;;;5280405;28;20044;-73
2023/06/13 01:52:47;;;;;;;3.95;1.90;;;;;;;;;;5276302;28;20037;-72
2023/06/13 01:55:22;;;;;;;5.32;1.90;;;;;;;;;;5281313;28;20016;-72
2023/06/13 01:57:57;;;;;;;3.70;2.28;;;;;;;;;;5282712;28;20027;-72
2023/06/13 02:00:29;;;;;;;4.20;2.03;;;;;;;;;;5284933;28;20051;-72
2023/06/13 02:03:01;;;;;;;4.07;2.13;;;;;;;;;;5284648;28;20047;-72
2023/06/13 02:05:32;;;;;;;3.90;2.40;;;;;;;;;;5284106;28;20025;-73
2023/06/13 02:08:04;;;;;;;4.25;2.47;;;;;;;;;;5284567;28;20031;-73
2023/06/13 02:10:35;;;;;;;3.17;2.45;;;;;;;;;;5284427;28;20550;-73
2023/06/13 02:13:06;;;;;;;5.93;2.65;;;;;;;;;;5283454;28;20072;-73
2023/06/13 02:15:37;;;;;;;5.55;2.20;;;;;;;;;;5284619;28;20361;-73
2023/06/13 02:18:09;;;;;;;4.10;2.70;;;;;;;;;;5284531;28;20017;-74
2023/06/13 02:20:40;;;;;;;3.58;2.63;;;;;;;;;;5283473;28;20388;-74
2023/06/13 02:23:12;;;;;;;3.70;2.17;;;;;;;;;;5284536;28;20017;-72
2023/06/13 02:25:44;;;;;;;8.20;2.45;;;;;;;;;;5283047;28;20677;-72
2023/06/13 02:28:15;;;;;;;7.70;2.83;;;;;;;;;;5284650;28;20028;-72
2023/06/13 02:30:47;;;;;;;4.90;2.80;;;;;;;;;;5283943;28;20062;-73
2023/06/13 02:33:18;;;;;;;4.90;2.63;;;;;;;;;;5283702;28;20293;-72
2023/06/13 02:35:50;;;;;;;10.27;3.00;;;;;;;;;;5283813;28;20401;-72
2023/06/13 02:38:21;;;;;;;7.13;2.60;;;;;;;;;;5284228;28;20111;-73
2023/06/13 02:40:53;;;;;;;6.60;2.50;;;;;;;;;;5282856;28;20015;-72
2023/06/13 02:43:24;;;;;;;5.72;2.60;;;;;;;;;;5283904;28;20675;-72
2023/06/13 02:45:56;;;;;;;9.80;2.80;;;;;;;;;;5283951;28;20016;-74
2023/06/13 02:48:27;;;;;;;5.55;2.80;;;;;;;;;;5283129;28;20274;-75
2023/06/13 02:50:59;;;;;;;5.70;2.88;;;;;;;;;;5283348;28;20048;-74
2023/06/13 02:53:30;;;;;;;7.00;3.05;;;;;;;;;;5283160;28;20021;-74
2023/06/13 02:56:01;;;;;;;9.27;2.80;;;;;;;;;;5283617;28;20467;-74
2023/06/13 02:58:33;;;;;;;5.38;2.60;;;;;;;;;;5283805;28;20370;-74
2023/06/13 03:01:04;;;;;;;10.77;3.40;;;;;;;;;;5282755;28;20016;-74
2023/06/13 03:03:37;;;;;;;6.88;2.90;;;;;;;;;;5283969;28;20046;-74
2023/06/13 03:06:08;;;;;;;7.07;3.25;;;;;;;;;;5283799;28;20378;-74
2023/06/13 03:08:40;;;;;;;7.07;3.58;;;;;;;;;;5281722;28;20016;-75
2023/06/13 03:11:12;;;;;;;7.25;3.45;;;;;;;;;;5283776;28;20021;-74
2023/06/13 03:13:43;;;;;;;9.73;3.03;;;;;;;;;;5282902;28;20497;-74
2023/06/13 03:16:14;;;;;;;9.05;3.00;;;;;;;;;;5282968;28;20024;-74
2023/06/13 03:18:46;;;;;;;8.50;3.53;;;;;;;;;;5283094;28;20025;-74
2023/06/13 03:21:17;;;;;;;8.20;3.57;;;;;;;;;;5283365;28;20274;-74
2023/06/13 03:23:48;;;;;;;9.38;3.30;;;;;;;;;;5281909;28;20350;-74
2023/06/13 03:26:19;;;;;;;6.90;3.63;;;;;;;;;;5283436;28;20451;-74
2023/06/13 03:28:50;;;;;;;9.23;4.15;;;;;;;;;;5282089;28;20036;-74
2023/06/13 03:31:22;;;;;;;12.57;4.38;;;;;;;;;;5283498;28;20060;-74
2023/06/13 03:33:53;;;;;;;7.47;3.55;;;;;;;;;;5282812;28;20017;-75
2023/06/13 03:36:26;;;;;;;12.07;3.97;;;;;;;;;;5282259;28;20138;-75
2023/06/13 03:38:57;;;;;;;7.47;4.05;;;;;;;;;;5282821;28;20262;-74
2023/06/13 03:41:29;;;;;;;8.33;3.73;;;;;;;;;;5283106;28;20412;-74
2023/06/13 03:44:00;;;;;;;11.37;3.90;;;;;;;;;;5282200;28;20369;-74
2023/06/13 03:46:31;;;;;;;7.57;3.90;;;;;;;;;;5282856;28;20270;-74
2023/06/13 03:49:02;;;;;;;7.00;3.87;;;;;;;;;;5282723;28;20263;-74
2023/06/13 03:51:34;;;;;;;8.07;4.32;;;;;;;;;;5281692;28;20310;-74
2023/06/13 03:54:05;;;;;;;6.90;3.63;;;;;;;;;;5282759;28;20424;-74
2023/06/13 03:56:37;;;;;;;12.80;4.30;;;;;;;;;;5282565;28;20028;-74
2023/06/13 03:59:08;;;;;;;7.80;3.83;;;;;;;;;;5281941;28;20318;-74
2023/06/13 04:01:41;;;;;;;6.77;3.57;;;;;;;;;;5282083;28;20271;-74
2023/06/13 04:04:12;;;;;;;5.80;3.47;;;;;;;;;;5281933;28;20271;-74
2023/06/13 04:06:47;;;;;;;6.88;4.45;;;;;;;;;;5282141;28;20501;-75
2023/06/13 04:09:18;;;;;;;8.10;3.35;;;;;;;;;;5282724;28;20020;-75
2023/06/13 04:11:50;;;;;;;6.63;3.97;;;;;;;;;;5281108;28;20386;-75
2023/06/13 04:14:21;;;;;;;7.85;4.00;;;;;;;;;;5282637;28;20024;-75
2023/06/13 04:16:52;;;;;;;6.83;4.13;;;;;;;;;;5281808;28;20017;-75
2023/06/13 04:19:24;;;;;;;4.72;2.92;;;;;;;;;;5281171;28;20266;-76
2023/06/13 04:21:56;;;;;;;7.95;4.05;;;;;;;;;;5281971;28;20091;-75
2023/06/13 04:24:27;;;;;;;8.60;3.37;;;;;;;;;;5281924;28;20100;-75
2023/06/13 04:27:00;;;;;;;7.40;3.75;;;;;;;;;;5281325;28;20697;-74
2023/06/13 04:29:31;;;;;;;8.63;4.40;;;;;;;;;;5281930;28;20024;-75
2023/06/13 04:32:02;;;;;;;11.73;3.60;;;;;;;;;;5281294;28;20387;-74
2023/06/13 04:34:37;;;;;;;7.53;3.28;;;;;;;;;;5281886;28;20338;-75
2023/06/13 04:37:08;;;;;;;8.07;3.80;;;;;;;;;;5282275;28;20053;-75
2023/06/13 04:39:40;;;;;;;9.67;3.60;;;;;;;;;;5280916;28;20038;-74
2023/06/13 04:42:14;;;;;;;7.00;3.35;;;;;;;;;;5282209;28;20840;-75
2023/06/13 04:44:45;;;;;;;6.75;4.28;;;;;;;;;;5281700;28;20511;-74
2023/06/13 04:47:16;;;;;;;8.18;4.43;;;;;;;;;;5281335;28;20103;-75
2023/06/13 04:49:50;;;;;;;5.40;3.60;;;;;;;;;;5281371;28;20041;-74
2023/06/13 04:52:23;;;;;;;6.90;3.88;;;;;;;;;;5281815;28;20294;-74
2023/06/13 04:54:56;;;;;;;6.47;3.80;;;;;;;;;;5280836;28;20016;-75
2023/06/13 04:57:28;;;;;;;7.28;4.57;;;;;;;;;;5281480;28;20048;-75
2023/06/13 04:59:59;;;;;;;6.05;4.47;;;;;;;;;;5281590;28;20062;-75
2023/06/13 05:02:30;;;;;;;6.78;4.88;;;;;;;;;;5280997;28;20080;-75
2023/06/13 05:05:04;;;;;;;6.03;4.82;;;;;;;;;;5281570;28;20066;-75
2023/06/13 05:07:36;;;;;;;5.55;4.95;;;;;;;;;;5280722;28;20028;-75
2023/06/13 05:10:08;;;;;;;6.38;4.80;;;;;;;;;;5281347;28;20573;-75
2023/06/13 05:12:39;;;;;;;6.88;4.78;;;;;;;;;;5281500;28;20025;-73
2023/06/13 05:15:11;;;;;;;6.70;4.47;;;;;;;;;;5281282;28;20020;-74
2023/06/13 05:17:45;;;;;;;8.00;4.70;;;;;;;;;;5281260;28;20044;-74
2023/06/13 05:20:16;;;;;;;7.30;4.68;;;;;;;;;;5281740;28;20016;-74
2023/06/13 05:22:47;;;;;;;8.40;4.97;;;;;;;;;;5280180;28;20028;-74
2023/06/13 05:25:19;;;;;;;5.45;4.25;;;;;;;;;;5281875;28;20013;-74
2023/06/13 05:27:51;;;;;;;9.55;4.88;;;;;;;;;;5281355;28;20426;-74
2023/06/13 05:30:22;;;;;;;5.88;4.15;;;;;;;;;;5280926;28;20052;-74
2023/06/13 05:32:53;;;;;;;6.85;3.72;;;;;;;;;;5283844;28;20040;-73
2023/06/13 05:35:25;;;;;;;6.72;4.60;;;;;;;;;;5284528;28;20493;-74
2023/06/13 05:37:56;;;;;;;7.27;3.60;;;;;;;;;;5285349;28;20036;-73
2023/06/13 05:40:27;;;;;;;5.43;3.63;;;;;;;;;;5285355;28;20353;-73
2023/06/13 05:42:58;;;;;;;7.93;4.23;;;;;;;;;;5284516;28;20298;-73
2023/06/13 05:45:29;;;;;;;6.23;4.10;;;;;;;;;;5285072;28;20361;-73
2023/06/13 05:48:01;;;;;;;8.65;4.53;;;;;;;;;;5284952;28;20251;-73
2023/06/13 05:50:32;;;;;;;7.97;4.75;;;;;;;;;;5284078;28;20514;-74
2023/06/13 05:53:03;;;;;;;6.83;4.07;;;;;;;;;;5284757;28;20035;-73
2023/06/13 05:55:34;;;;;;;7.73;3.50;;;;;;;;;;5284909;28;20621;-74
2023/06/13 05:58:05;;;;;;;8.90;4.00;;;;;;;;;;5283282;28;20344;-73
2023/06/13 06:00:37;;;;;;;5.88;4.03;;;;;;;;;;5284798;28;20270;-74
2023/06/13 06:03:08;;;;;;;5.70;3.80;;;;;;;;;;5285028;28;20402;-74
2023/06/13 06:05:39;;;;;;;6.30;3.72;;;;;;;;;;5284114;28;20325;-74
2023/06/13 06:08:12;;;;;;;6.55;3.80;;;;;;;;;;5284936;28;20040;-74
2023/06/13 06:10:43;;;;;;;6.07;3.58;;;;;;;;;;5283591;28;20924;-74
2023/06/13 06:13:14;;;;;;;9.57;4.60;;;;;;;;;;5284973;28;20123;-75
2023/06/13 06:15:45;;;;;;;11.60;3.87;;;;;;;;;;5284538;28;20278;-73
2023/06/13 06:18:20;;;;;;;5.60;3.63;;;;;;;;;;5280860;28;20305;-74
2023/06/13 06:20:51;;;;;;;8.98;3.95;;;;;;;;;;5283888;28;20371;-74
2023/06/13 06:23:22;;;;;;;10.15;4.05;;;;;;;;;;5284651;28;20016;-72
2023/06/13 06:25:53;;;;;;;8.07;3.40;;;;;;;;;;5283307;28;20096;-75
2023/06/13 06:28:25;;;;;;;10.57;4.00;;;;;;;;;;5284327;28;20021;-75
2023/06/13 06:30:56;;;;;;;6.78;3.70;;;;;;;;;;5282955;28;20016;-75
2023/06/13 06:33:27;;;;;;;9.38;4.22;;;;;;;;;;5283150;28;20028;-75
2023/06/13 06:35:59;;;;;;;5.97;3.67;;;;;;;;;;5284142;28;20028;-75
2023/06/13 06:38:30;;;;;;;6.47;3.70;;;;;;;;;;5283547;28;20275;-75
2023/06/13 06:41:01;;;;;;;10.30;3.50;;;;;;;;;;5283894;28;20780;-74
2023/06/13 06:43:32;;;;;;;5.45;3.95;;;;;;;;;;5282793;28;20274;-74
2023/06/13 06:46:03;;;;;;;10.10;3.90;;;;;;;;;;5283416;28;20017;-74
2023/06/13 06:48:35;;;;;;;7.07;3.97;;;;;;;;;;5284237;28;20362;-74
2023/06/13 06:51:06;;;;;;;6.63;3.80;;;;;;;;;;5283751;28;20318;-75
2023/06/13 06:53:39;;;;;;;9.27;3.70;;;;;;;;;;5283341;28;20077;-74
2023/06/13 06:56:10;;;;;;;5.78;3.97;;;;;;;;;;5284035;28;20305;-74
2023/06/13 06:58:41;;;;;;;5.23;3.53;;;;;;;;;;5283645;28;20387;-73
2023/06/13 07:01:18;;;;;;;5.93;3.77;;;;;;;;;;5283573;28;20286;-75
2023/06/13 07:03:49;;;;;;;6.32;4.05;;;;;;;;;;5283549;28;20749;-74
2023/06/13 07:06:21;;;;;;;6.25;3.83;;;;;;;;;;5283482;28;20013;-75
2023/06/13 07:08:52;;;;;;;10.02;3.42;;;;;;;;;;5282586;28;20127;-75
2023/06/13 07:11:23;;;;;;;3.78;2.60;;;;;;;;;;5279302;28;20161;-73
2023/06/13 07:13:54;;;;;;;4.20;2.50;;;;;;;;;;5282501;28;20066;-73
2023/06/13 07:16:25;;;;;;;7.63;4.27;;;;;;;;;;5283355;28;20017;-74
2023/06/13 07:18:57;;;;;;;7.25;3.65;;;;;;;;;;5283358;28;20290;-72
2023/06/13 07:21:28;;;;;;;5.57;3.30;;;;;;;;;;5281975;28;20071;-74
2023/06/13 07:24:00;;;;;;;6.00;3.30;;;;;;;;;;5281629;28;20013;-72
2023/06/13 07:26:31;;;;;;;6.88;3.55;;;;;;;;;;5281936;28;20023;-73
2023/06/13 07:29:02;;;;;;;10.50;3.83;;;;;;;;;;5281246;28;20009;-74
2023/06/13 07:31:33;;;;;;;9.98;3.53;;;;;;;;;;5283147;28;20278;-74
2023/06/13 07:34:05;;;;;;;9.95;3.75;;;;;;;;;;5283205;28;20017;-73
2023/06/13 07:36:37;;;;;;;6.25;3.22;;;;;;;;;;5282604;28;20024;-74
2023/06/13 07:39:12;;;;;;;5.13;2.78;;;;;;;;;;5283149;28;20378;-73
2023/06/13 07:41:46;;;;;;;6.75;3.42;;;;;;;;;;5282673;28;20386;-74
2023/06/13 07:44:17;;;;;;;6.05;2.83;;;;;;;;;;5281971;28;20412;-73
2023/06/13 07:46:49;;;;;;;6.55;3.15;;;;;;;;;;5280668;28;20020;-73
2023/06/13 07:49:20;;;;;;;8.50;3.53;;;;;;;;;;5280268;28;20095;-73
2023/06/13 07:51:51;;;;;;;9.55;3.22;;;;;;;;;;5280452;28;20032;-73
2023/06/13 07:54:22;;;;;;;6.13;3.28;;;;;;;;;;5280246;28;20044;-74
2023/06/13 07:56:54;;;;;;;5.50;2.58;;;;;;;;;;5279612;28;20422;-74
2023/06/13 07:59:25;;;;;;;5.18;3.10;;;;;;;;;;5281288;28;20041;-75
2023/06/13 08:01:56;;;;;;;4.45;2.90;;;;;;;;;;5282514;28;20081;-74
2023/06/13 08:04:28;;;;;;;3.80;2.60;;;;;;;;;;5281688;28;20073;-72
2023/06/13 08:06:59;;;;;;;6.05;2.70;;;;;;;;;;5282198;28;20033;-74
2023/06/13 08:09:30;;;;;;;6.95;3.85;;;;;;;;;;5280420;28;20435;-73
2023/06/13 08:12:01;;;;;;;5.10;3.00;;;;;;;;;;5278868;28;20028;-74
2023/06/13 08:14:32;;;;;;;4.65;2.97;;;;;;;;;;5281571;28;20298;-73
2023/06/13 08:17:04;;;;;;;4.80;2.83;;;;;;;;;;5281604;28;20061;-74
2023/06/13 08:19:35;;;;;;;6.65;2.72;;;;;;;;;;5282135;28;20262;-74
2023/06/13 08:22:07;;;;;;;4.65;2.67;;;;;;;;;;5281724;28;20021;-74
2023/06/13 08:24:38;;;;;;;5.07;3.25;;;;;;;;;;5281260;28;20024;-74
2023/06/13 08:27:12;;;;;;;7.67;3.50;;;;;;;;;;5281940;28;20506;-74
2023/06/13 08:29:43;;;;;;;5.10;3.63;;;;;;;;;;5281282;28;20757;-74
2023/06/13 08:32:15;;;;;;;4.90;2.35;;;;;;;;;;5281427;28;20482;-74
2023/06/13 08:34:47;;;;;;;5.35;3.00;;;;;;;;;;5281712;28;20358;-73
2023/06/13 08:37:19;;;;;;;4.40;2.25;;;;;;;;;;5282119;28;20103;-76
2023/06/13 08:39:50;;;;;;;4.50;3.10;;;;;;;;;;5280413;28;20032;-78
2023/06/13 08:42:21;;;;;;;8.33;2.93;;;;;;;;;;5281658;28;20270;-73
2023/06/13 08:44:52;;;;;;;5.87;2.83;;;;;;;;;;5281000;28;20759;-74
2023/06/13 08:47:24;;;;;;;7.22;3.30;;;;;;;;;;5281091;28;20419;-74
2023/06/13 08:49:55;;;;;;;6.30;2.55;;;;;;;;;;5280990;28;20071;-74
2023/06/13 08:52:33;;;;;;;4.00;2.05;;;;;;;;;;5280353;28;20064;-72
2023/06/13 08:55:06;;;;;;;5.15;2.08;;;;;;;;;;5281674;28;20020;-74
2023/06/13 08:57:39;;;;;;;3.65;2.00;;;;;;;;;;5281522;28;20022;-74
2023/06/13 09:00:11;;;;;;;8.77;2.70;;;;;;;;;;5280935;28;20455;-74
2023/06/13 09:02:45;;;;;;;6.32;2.72;;;;;;;;;;5281406;28;20971;-75
2023/06/13 09:05:17;;;;;;;9.10;2.15;;;;;;;;;;5282081;28;20023;-75
2023/06/13 09:07:50;;;;;;;3.22;2.03;;;;;;;;;;5279152;28;20095;-75
2023/06/13 09:10:21;;;;;;;6.22;2.03;;;;;;;;;;5281825;28;20052;-75
2023/06/13 09:12:53;;;;;;;7.05;1.98;;;;;;;;;;5281178;28;20063;-74
2023/06/13 09:15:26;;;;;;;4.20;1.85;;;;;;;;;;5280834;28;20013;-74
2023/06/13 09:17:57;;;;;;;6.60;2.47;;;;;;;;;;5281242;28;20035;-76
2023/06/13 09:20:30;;;;;;;4.50;1.83;;;;;;;;;;5280692;28;20012;-75
2023/06/13 09:23:02;;;;;;;4.10;2.47;;;;;;;;;;5281731;28;20368;-74
2023/06/13 09:25:35;;;;;;;6.57;2.15;;;;;;;;;;5281519;28;20137;-74
2023/06/13 09:28:25;;;;;;;9.55;2.13;;;;;;;;;;5280520;28;20435;-74
2023/06/13 09:30:57;;;;;;;6.38;1.45;;;;;;;;;;5281269;28;20504;-74
2023/06/13 09:33:28;;;;;;;6.05;1.83;;;;;;;;;;5281058;28;20044;-74
2023/06/13 09:35:59;;;;;;;6.00;1.70;;;;;;;;;;5280165;28;20368;-73
2023/06/13 09:38:34;;;;;;;5.00;2.00;;;;;;;;;;5281066;28;20029;-74
2023/06/13 09:41:06;;;;;;;4.22;1.92;;;;;;;;;;5280883;28;20482;-74
2023/06/13 09:43:38;;;;;;;3.03;1.33;;;;;;;;;;5280532;28;20063;-74
2023/06/13 09:46:13;;;;;;;7.78;1.80;;;;;;;;;;5280779;28;20035;-75
2023/06/13 09:48:45;;;;;;;5.55;1.67;;;;;;;;;;5280452;28;20025;-75
2023/06/13 09:51:16;;;;;;;5.85;1.75;;;;;;;;;;5280892;28;20380;-74
2023/06/13 09:53:47;;;;;;;4.57;1.30;;;;;;;;;;5280464;28;20025;-75
2023/06/13 09:56:21;;;;;;;5.13;1.67;;;;;;;;;;5280699;28;20459;-75
2023/06/13 09:58:52;;;;;;;3.70;1.60;;;;;;;;;;5280828;28;20050;-74
2023/06/13 10:01:24;;;;;;;4.60;1.47;;;;;;;;;;5280730;28;20100;-75
2023/06/13 10:03:55;;;;;;;4.53;2.00;;;;;;;;;;5279752;28;20024;-74
2023/06/13 10:06:27;;;;;;;5.40;1.58;;;;;;;;;;5280881;28;20094;-75
2023/06/13 10:08:58;;;;;;;2.57;1.20;;;;;;;;;;5281060;28;20016;-74
2023/06/13 10:11:30;;;;;;;6.30;1.83;;;;;;;;;;5279869;28;20025;-74
2023/06/13 10:14:02;;;;;;;4.32;1.63;;;;;;;;;;5280994;28;20091;-74
2023/06/13 10:16:37;;;;;;;2.90;1.20;;;;;;;;;;5279914;28;20017;-75
2023/06/13 10:19:11;;;;;;;3.95;1.17;;;;;;;;;;5283846;28;20037;-74
2023/06/13 10:21:43;;;;;;;4.50;1.33;;;;;;;;;;5283878;28;20111;-74
2023/06/13 10:24:14;;;;;;;5.65;1.40;;;;;;;;;;5283583;28;20029;-76
2023/06/13 10:26:46;;;;;;;3.13;1.30;;;;;;;;;;5284078;28;20112;-77
2023/06/13 10:29:26;;;;;;;3.60;1.30;;;;;;;;;;5284677;28;20054;-76
2023/06/13 10:32:09;;;;;;;4.03;1.40;;;;;;;;;;5283444;28;20044;-75
2023/06/13 10:34:55;;;;;;;3.42;1.40;;;;;;;;;;5283788;28;20370;-75
2023/06/13 10:37:38;;;;;;;4.45;1.10;;;;;;;;;;5284160;28;20352;-74
2023/06/13 10:40:12;;;;;;;2.83;1.35;;;;;;;;;;5284387;28;20077;-75
2023/06/13 10:43:02;;;;;;;6.60;1.92;;;;;;;;;;5283618;28;20036;-74
2023/06/13 10:45:34;;;;;;;6.13;1.65;;;;;;;;;;5282881;28;20024;-74
2023/06/13 10:48:06;;;;;;;3.13;2.00;;;;;;;;;;5283968;28;20035;-73
2023/06/13 10:50:41;;;;;;;2.55;1.92;;;;;;;;;;5283615;28;20053;-75
2023/06/13 10:53:27;;;;;;;4.20;1.60;;;;;;;;;;5283400;28;20078;-75
2023/06/13 10:56:02;;;;;;;3.72;1.52;;;;;;;;;;5283137;28;20020;-75
2023/06/13 10:58:33;;;;;;;3.90;1.23;;;;;;;;;;5282983;28;20017;-75
2023/06/13 11:01:23;;;;;;;2.60;1.92;;;;;;;;;;5283043;28;20410;-75
2023/06/13 11:04:05;;;;;;;2.70;1.08;;;;;;;;;;5283741;28;20024;-74
2023/06/13 11:06:37;;;;;;;5.20;1.30;;;;;;;;;;5282713;28;20043;-75
2023/06/13 11:09:21;;;;;;;3.17;1.50;;;;;;;;;;5283861;28;20497;-74
2023/06/13 11:11:53;;;;;;;2.75;1.35;;;;;;;;;;5283174;28;20417;-74
2023/06/13 11:14:31;;;;;;;4.00;1.70;;;;;;;;;;5282652;28;20025;-75
2023/06/13 11:17:03;;;;;;;3.80;1.38;;;;;;;;;;5283378;28;20113;-75
2023/06/13 11:19:34;;;;;;;7.53;1.75;;;;;;;;;;5283498;28;20024;-73
2023/06/13 11:22:12;;;;;;;2.72;1.58;;;;;;;;;;5282528;28;20012;-74
2023/06/13 11:24:43;;;;;;;3.92;1.52;;;;;;;;;;5283057;28;20266;-75
2023/06/13 11:27:16;;;;;;;2.93;1.60;;;;;;;;;;5282690;28;20020;-74
2023/06/13 11:29:48;;;;;;;5.28;1.83;;;;;;;;;;5282034;28;20024;-73
2023/06/13 11:32:20;;;;;;;2.70;1.42;;;;;;;;;;5283530;28;20032;-76
2023/06/13 11:34:55;;;;;;;4.00;1.90;;;;;;;;;;5282051;28;20028;-74
2023/06/13 11:37:35;;;;;;;3.40;1.67;;;;;;;;;;5283015;28;20012;-73
2023/06/13 11:40:08;;;;;;;2.95;1.50;;;;;;;;;;5282192;28;20017;-74
2023/06/13 11:42:40;;;;;;;3.45;1.70;;;;;;;;;;5279657;28;20028;-75
2023/06/13 11:45:11;;;;;;;3.42;1.52;;;;;;;;;;5280857;28;20024;-74
2023/06/13 11:47:45;;;;;;;2.23;1.20;;;;;;;;;;5274585;28;20630;-74
2023/06/13 11:50:22;;;;;;;2.78;1.50;;;;;;;;;;5278867;28;20290;-74
2023/06/13 11:53:06;;;;;;;2.88;1.50;;;;;;;;;;5260086;28;20068;-74
2023/06/13 11:55:37;;;;;;;2.20;1.48;;;;;;;;;;5262501;28;20032;-73
2023/06/13 11:58:08;;;;;;;4.80;1.87;;;;;;;;;;5281999;28;20025;-75
2023/06/13 12:00:55;;;;;;;4.43;1.60;;;;;;;;;;5282086;28;20486;-73
2023/06/13 12:03:26;;;;;;;2.95;1.70;;;;;;;;;;5281529;28;20267;-74
2023/06/13 12:05:58;;;;;;;4.43;1.55;;;;;;;;;;5282374;28;20023;-73
2023/06/13 12:08:32;;;;;;;4.13;2.03;;;;;;;;;;5280647;28;20012;-72
2023/06/13 12:11:05;;;;;;;5.00;1.75;;;;;;;;;;5279275;28;20016;-72
2023/06/13 12:13:36;;;;;;;2.97;1.38;;;;;;;;;;5280159;28;20528;-73
2023/06/13 12:16:08;;;;;;;4.28;1.77;;;;;;;;;;5279137;28;20013;-73
2023/06/13 12:18:39;;;;;;;6.70;1.90;;;;;;;;;;5279884;28;20016;-74
2023/06/13 12:21:10;;;;;;;4.55;1.50;;;;;;;;;;5280072;28;20281;-73
2023/06/13 12:23:42;;;;;;;5.78;1.85;;;;;;;;;;5279890;28;20032;-73
2023/06/13 12:26:13;;;;;;;5.38;1.92;;;;;;;;;;5282374;28;20045;-73
2023/06/13 12:28:44;;;;;;;5.45;1.40;;;;;;;;;;5281372;28;20067;-73
2023/06/13 12:31:15;;;;;;;4.32;1.52;;;;;;;;;;5281244;28;20430;-73
2023/06/13 12:33:47;;;;;;;3.60;1.50;;;;;;;;;;5281730;28;20028;-74
2023/06/13 12:36:18;;;;;;;2.88;1.90;;;;;;;;;;5281544;28;20316;-75
2023/06/13 12:38:51;;;;;;;5.27;1.67;;;;;;;;;;5280826;28;20497;-74
2023/06/13 12:41:25;;;;;;;3.13;1.92;;;;;;;;;;5282085;28;20749;-73
2023/06/13 12:43:58;;;;;;;3.92;2.10;;;;;;;;;;5281768;28;20467;-74
2023/06/13 12:46:29;;;;;;;1.80;1.20;;;;;;;;;;5280665;28;20050;-74
2023/06/13 12:49:01;;;;;;;4.25;1.67;;;;;;;;;;5281810;28;20417;-75
2023/06/13 12:51:32;;;;;;;3.77;1.80;;;;;;;;;;5280510;28;20067;-75
2023/06/13 12:54:25;;;;;;;4.87;1.40;;;;;;;;;;5276800;28;20289;-75
2023/06/13 12:56:57;;;;;;;3.42;1.30;;;;;;;;;;5277397;28;20032;-76
2023/06/13 12:59:33;;;;;;;2.45;1.20;;;;;;;;;;5279778;28;20099;-73
2023/06/13 13:02:07;;;;;;;3.40;1.38;;;;;;;;;;5282402;28;20032;-74
2023/06/13 13:04:39;;;;;;;2.92;1.08;;;;;;;;;;5279506;28;20016;-74
2023/06/13 13:07:14;;;;;;;4.93;1.38;;;;;;;;;;5290621;28;20023;-74
2023/06/13 13:09:45;;;;;;;3.38;1.20;;;;;;;;;;5301272;28;20045;-73
2023/06/13 13:12:16;;;;;;;24.05;2.70;;;;;;;;;;5301313;28;20040;-73
2023/06/13 13:14:48;;;;;;;3.40;1.30;;;;;;;;;;5300472;28;20016;-73
2023/06/13 13:17:19;;;;;;;2.33;1.17;;;;;;;;;;5289384;28;20360;-74
2023/06/13 13:19:53;;;;;;;3.80;1.30;;;;;;;;;;5279766;28;20120;-74
2023/06/13 13:22:24;;;;;;;2.15;1.20;;;;;;;;;;5280818;28;20427;-74
2023/06/13 13:24:55;;;;;;;2.53;1.20;;;;;;;;;;5280287;28;20059;-73
2023/06/13 13:27:26;;;;;;;2.53;1.13;;;;;;;;;;5279596;28;20686;-75
2023/06/13 13:29:57;;;;;;;3.73;1.63;;;;;;;;;;5280170;28;20305;-74
2023/06/13 13:32:29;;;;;;;1.92;1.10;;;;;;;;;;5280496;28;20467;-75
2023/06/13 13:35:03;;;;;;;2.55;1.00;;;;;;;;;;5276696;28;20059;-74
2023/06/13 13:37:34;;;;;;;3.42;1.35;;;;;;;;;;5279977;28;20016;-75
2023/06/13 13:40:06;;;;;;;3.92;1.20;;;;;;;;;;5280160;28;20070;-75
2023/06/13 13:42:38;;;;;;;3.75;1.48;;;;;;;;;;5279195;28;20028;-75
2023/06/13 13:45:09;;;;;;;3.47;1.52;;;;;;;;;;5288772;28;20466;-72
2023/06/13 13:47:41;;;;;;;3.33;1.35;;;;;;;;;;5300734;28;20157;-75
2023/06/13 13:50:15;;;;;;;2.75;1.10;;;;;;;;;;5300847;28;20082;-76
2023/06/13 13:52:46;;;;;;;3.17;1.30;;;;;;;;;;5299480;28;20040;-75
2023/06/13 13:55:17;;;;;;;3.60;1.25;;;;;;;;;;5304995;28;20416;-76
2023/06/13 13:57:48;;;;;;;2.97;1.52;;;;;;;;;;5304430;28;20482;-76
2023/06/13 14:00:20;;;;;;;3.90;1.20;;;;;;;;;;5304289;28;20513;-76
2023/06/13 14:02:51;;;;;;;4.03;1.30;;;;;;;;;;5302876;28;20462;-75
2023/06/13 14:05:22;;;;;;;1.67;1.10;;;;;;;;;;5304362;28;20020;-75
2023/06/13 14:07:54;;;;;;;3.77;1.63;;;;;;;;;;5303793;28;20020;-75
2023/06/13 14:10:25;;;;;;;3.88;1.48;;;;;;;;;;5312022;28;20102;-76
2023/06/13 14:12:56;;;;;;;5.43;1.30;;;;;;;;;;5315329;28;20482;-75
2023/06/13 14:15:27;;;;;;;5.47;1.63;;;;;;;;;;5312774;28;20020;-75
2023/06/13 14:17:58;;;;;;;2.28;1.15;;;;;;;;;;5306496;28;20556;-75
2023/06/13 14:20:30;;;;;;;3.25;1.10;;;;;;;;;;5306206;28;20401;-75
2023/06/13 14:23:01;;;;;;;1.55;1.00;;;;;;;;;;5305330;28;20024;-75
2023/06/13 14:25:32;;;;;;;2.28;1.30;;;;;;;;;;5305868;28;20347;-75
2023/06/13 14:28:04;;;;;;;1.70;1.13;;;;;;;;;;5304949;28;20020;-75
2023/06/13 14:30:35;;;;;;;5.22;1.38;;;;;;;;;;5304388;28;20050;-73
2023/06/13 14:33:06;;;;;;;4.67;1.43;;;;;;;;;;5305196;28;20046;-74
2023/06/13 14:35:37;;;;;;;2.33;1.58;;;;;;;;;;5305342;28;20016;-73
2023/06/13 14:38:09;;;;;;;3.10;1.37;;;;;;;;;;5304836;28;20027;-74
2023/06/13 14:40:40;;;;;;;3.20;1.35;;;;;;;;;;5305072;28;20269;-75
2023/06/13 14:43:11;;;;;;;2.33;1.30;;;;;;;;;;5305329;28;20439;-74
2023/06/13 14:45:42;;;;;;;2.55;1.40;;;;;;;;;;5304323;28;20023;-74
2023/06/13 14:48:14;;;;;;;2.20;1.30;;;;;;;;;;5305944;28;20016;-74
2023/06/13 14:50:45;;;;;;;4.72;1.67;;;;;;;;;;5304751;28;20044;-75
2023/06/13 14:53:16;;;;;;;2.30;1.30;;;;;;;;;;5304586;28;20038;-74
2023/06/13 14:55:47;;;;;;;2.37;1.20;;;;;;;;;;5304781;28;20020;-74
2023/06/13 14:58:18;;;;;;;2.93;1.20;;;;;;;;;;5304816;28;20099;-74
2023/06/13 15:00:49;;;;;;;2.22;1.30;;;;;;;;;;5304507;28;20266;-74
2023/06/13 15:03:21;;;;;;;4.07;1.40;;;;;;;;;;5305171;28;20016;-73
2023/06/13 15:05:52;;;;;;;5.75;1.83;;;;;;;;;;5302649;28;20047;-73
2023/06/13 15:08:23;;;;;;;5.07;1.42;;;;;;;;;;5304720;28;20020;-73
2023/06/13 15:10:54;;;;;;;1.87;1.30;;;;;;;;;;5304964;28;20012;-73
2023/06/13 15:13:25;;;;;;;3.80;1.87;;;;;;;;;;5304073;28;20024;-73
2023/06/13 15:15:57;;;;;;;4.03;2.10;;;;;;;;;;5304651;28;20266;-73